Portada
METAR-TAF:

METAR-TAF

Aeropuertos :

Logroño, España

Aeropuerto de Logroño-Agoncillo

latitud: 42-27N, longitud: 002-20W, altitud: 353 m

Observación

El informe se hizo hace 1 hora y 9 minutos, a las 07:00 UTC
Viento calma
Temperatura 9°C
Humedad 93%
Presión 1026 hPa
Visibilidad 10 km o más
Cielo nuboso a una altura de 1100 ft

METAR: LELO 280700Z 00000KT 9999 BKN011 09/08 Q1026

Hora: 10:09 (08:09 UTC)

Pronóstico

El informe se hizo hace 3 horas y 9 minutos, a las 05:00 UTC
Pronóstico válido del 28 a las 06 UTC al 28 a las 15 UTC
Viento 4 kt con dirección variable
Visibilidad 10 km o más
Cielo nuboso a una altura de 1500 ft
Probabilidad 30% :
Temporalmente
del 28 a las 06 UTC al 28 a las 09 UTC
Visibilidad: 0800 m
Cielo nuboso a una altura de 800 ft
niebla

TAF: LELO 280500Z 2806/2815 VRB04KT 9999 BKN015 PROB30 TEMPO 2806/2809 0800 FG BKN008

Observaciones y pronósticos meteorológicos de más de 4000 aeropuertos (mensajes METAR y TAF).

Los puntos amarillos y rojos representan las estaciones disponibles.

Ponga el ratón en el punto deseado para ver el nombre de la estación.

Haga clic para ver las observaciones y los pronósticos meteorológicos.

Para cambiar el mapa : haga clic en los botones verdes con una cruz de color negro para hacer un zoom, en el botón verde con un guión para alejar o en las flechas verdes para mapas adyacentes.


METAR-TAF: